sensor_id;sensor_type;location;lat;lon;timestamp;P1;durP1;ratioP1;P2;durP2;ratioP2
25409;SDS011;13339;50.840;4.346;2023-07-29T00:01:59;2.00;;;1.77;;
25409;SDS011;13339;50.840;4.346;2023-07-29T00:04:25;3.97;;;1.80;;
25409;SDS011;13339;50.840;4.346;2023-07-29T00:06:51;2.13;;;1.50;;
25409;SDS011;13339;50.840;4.346;2023-07-29T00:09:16;2.80;;;1.77;;
25409;SDS011;13339;50.840;4.346;2023-07-29T00:11:42;2.47;;;1.40;;
25409;SDS011;13339;50.840;4.346;2023-07-29T00:14:07;1.67;;;1.50;;
25409;SDS011;13339;50.840;4.346;2023-07-29T00:16:33;3.83;;;1.73;;
25409;SDS011;13339;50.840;4.346;2023-07-29T00:18:59;3.27;;;1.70;;
25409;SDS011;13339;50.840;4.346;2023-07-29T00:21:25;2.33;;;1.60;;
25409;SDS011;13339;50.840;4.346;2023-07-29T00:23:51;2.30;;;1.53;;
25409;SDS011;13339;50.840;4.346;2023-07-29T00:26:17;2.73;;;2.10;;
25409;SDS011;13339;50.840;4.346;2023-07-29T00:28:42;4.70;;;1.87;;
25409;SDS011;13339;50.840;4.346;2023-07-29T00:31:08;3.03;;;1.97;;
25409;SDS011;13339;50.840;4.346;2023-07-29T00:33:34;3.73;;;1.73;;
25409;SDS011;13339;50.840;4.346;2023-07-29T00:35:59;4.43;;;1.73;;
25409;SDS011;13339;50.840;4.346;2023-07-29T00:38:28;2.67;;;1.90;;
25409;SDS011;13339;50.840;4.346;2023-07-29T00:40:53;5.40;;;2.00;;
25409;SDS011;13339;50.840;4.346;2023-07-29T00:43:21;2.97;;;1.80;;
25409;SDS011;13339;50.840;4.346;2023-07-29T00:45:47;4.47;;;1.80;;
25409;SDS011;13339;50.840;4.346;2023-07-29T00:48:13;5.60;;;1.80;;
25409;SDS011;13339;50.840;4.346;2023-07-29T00:50:39;3.10;;;1.80;;
25409;SDS011;13339;50.840;4.346;2023-07-29T00:53:05;2.10;;;1.37;;
25409;SDS011;13339;50.840;4.346;2023-07-29T00:55:31;6.57;;;1.97;;
25409;SDS011;13339;50.840;4.346;2023-07-29T00:57:57;2.97;;;1.70;;
25409;SDS011;13339;50.840;4.346;2023-07-29T01:00:22;3.27;;;1.90;;
25409;SDS011;13339;50.840;4.346;2023-07-29T01:02:49;2.00;;;1.70;;
25409;SDS011;13339;50.840;4.346;2023-07-29T01:05:16;2.33;;;2.00;;
25409;SDS011;13339;50.840;4.346;2023-07-29T01:10:26;4.80;;;2.03;;
25409;SDS011;13339;50.840;4.346;2023-07-29T01:15:58;4.40;;;1.60;;
25409;SDS011;13339;50.840;4.346;2023-07-29T01:18:30;3.10;;;2.13;;
25409;SDS011;13339;50.840;4.346;2023-07-29T01:21:02;4.73;;;2.00;;
25409;SDS011;13339;50.840;4.346;2023-07-29T01:23:30;5.20;;;2.07;;
25409;SDS011;13339;50.840;4.346;2023-07-29T01:25:56;5.13;;;2.13;;
25409;SDS011;13339;50.840;4.346;2023-07-29T01:28:21;3.13;;;2.10;;
25409;SDS011;13339;50.840;4.346;2023-07-29T01:30:49;3.67;;;2.03;;
25409;SDS011;13339;50.840;4.346;2023-07-29T01:33:20;6.20;;;2.20;;
25409;SDS011;13339;50.840;4.346;2023-07-29T01:35:52;2.73;;;1.90;;
25409;SDS011;13339;50.840;4.346;2023-07-29T01:38:30;4.27;;;2.00;;
25409;SDS011;13339;50.840;4.346;2023-07-29T01:41:00;4.43;;;1.93;;
25409;SDS011;13339;50.840;4.346;2023-07-29T01:43:28;2.47;;;2.10;;
25409;SDS011;13339;50.840;4.346;2023-07-29T01:45:54;2.60;;;2.10;;
25409;SDS011;13339;50.840;4.346;2023-07-29T01:48:20;3.73;;;2.37;;
25409;SDS011;13339;50.840;4.346;2023-07-29T01:50:46;2.00;;;1.80;;
25409;SDS011;13339;50.840;4.346;2023-07-29T01:53:12;5.40;;;1.80;;
25409;SDS011;13339;50.840;4.346;2023-07-29T01:55:38;6.93;;;2.60;;
25409;SDS011;13339;50.840;4.346;2023-07-29T01:58:04;7.57;;;2.07;;
25409;SDS011;13339;50.840;4.346;2023-07-29T02:00:30;3.97;;;1.93;;
25409;SDS011;13339;50.840;4.346;2023-07-29T02:02:55;3.20;;;2.37;;
25409;SDS011;13339;50.840;4.346;2023-07-29T02:05:21;5.67;;;2.27;;
25409;SDS011;13339;50.840;4.346;2023-07-29T02:07:46;3.33;;;2.40;;
25409;SDS011;13339;50.840;4.346;2023-07-29T02:10:12;2.90;;;1.93;;
25409;SDS011;13339;50.840;4.346;2023-07-29T02:12:38;3.93;;;2.57;;
25409;SDS011;13339;50.840;4.346;2023-07-29T02:15:04;5.10;;;2.13;;
25409;SDS011;13339;50.840;4.346;2023-07-29T02:17:30;4.93;;;2.37;;
25409;SDS011;13339;50.840;4.346;2023-07-29T02:19:56;8.23;;;2.30;;
25409;SDS011;13339;50.840;4.346;2023-07-29T02:22:21;14.17;;;2.53;;
25409;SDS011;13339;50.840;4.346;2023-07-29T02:24:47;9.83;;;2.30;;
25409;SDS011;13339;50.840;4.346;2023-07-29T02:27:12;4.07;;;2.00;;
25409;SDS011;13339;50.840;4.346;2023-07-29T02:29:38;4.27;;;2.30;;
25409;SDS011;13339;50.840;4.346;2023-07-29T02:32:04;6.03;;;2.03;;
25409;SDS011;13339;50.840;4.346;2023-07-29T02:34:29;5.17;;;2.30;;
25409;SDS011;13339;50.840;4.346;2023-07-29T02:36:55;3.20;;;2.37;;
25409;SDS011;13339;50.840;4.346;2023-07-29T02:39:21;4.40;;;2.40;;
25409;SDS011;13339;50.840;4.346;2023-07-29T02:41:46;2.50;;;2.17;;
25409;SDS011;13339;50.840;4.346;2023-07-29T02:44:12;5.13;;;2.27;;
25409;SDS011;13339;50.840;4.346;2023-07-29T02:46:38;4.37;;;2.17;;
25409;SDS011;13339;50.840;4.346;2023-07-29T02:49:03;2.77;;;2.13;;
25409;SDS011;13339;50.840;4.346;2023-07-29T02:51:31;4.87;;;2.00;;
25409;SDS011;13339;50.840;4.346;2023-07-29T02:53:57;3.70;;;2.27;;
25409;SDS011;13339;50.840;4.346;2023-07-29T02:56:23;4.90;;;2.30;;
25409;SDS011;13339;50.840;4.346;2023-07-29T02:58:49;6.37;;;2.30;;
25409;SDS011;13339;50.840;4.346;2023-07-29T03:01:16;2.10;;;1.90;;
25409;SDS011;13339;50.840;4.346;2023-07-29T03:03:42;11.20;;;2.40;;
25409;SDS011;13339;50.840;4.346;2023-07-29T03:06:09;6.13;;;2.50;;
25409;SDS011;13339;50.840;4.346;2023-07-29T03:08:35;3.40;;;2.30;;
25409;SDS011;13339;50.840;4.346;2023-07-29T03:11:05;3.70;;;2.40;;
25409;SDS011;13339;50.840;4.346;2023-07-29T03:13:32;4.43;;;2.27;;
25409;SDS011;13339;50.840;4.346;2023-07-29T03:16:11;5.87;;;2.20;;
25409;SDS011;13339;50.840;4.346;2023-07-29T03:18:39;5.13;;;2.40;;
25409;SDS011;13339;50.840;4.346;2023-07-29T03:21:05;6.27;;;2.60;;
25409;SDS011;13339;50.840;4.346;2023-07-29T03:23:31;6.70;;;2.53;;
25409;SDS011;13339;50.840;4.346;2023-07-29T03:25:59;3.20;;;2.30;;
25409;SDS011;13339;50.840;4.346;2023-07-29T03:28:26;4.97;;;2.60;;
25409;SDS011;13339;50.840;4.346;2023-07-29T03:30:53;4.17;;;2.30;;
25409;SDS011;13339;50.840;4.346;2023-07-29T03:33:19;5.00;;;2.47;;
25409;SDS011;13339;50.840;4.346;2023-07-29T03:35:45;5.63;;;2.53;;
25409;SDS011;13339;50.840;4.346;2023-07-29T03:38:10;6.17;;;3.03;;
25409;SDS011;13339;50.840;4.346;2023-07-29T03:40:39;6.07;;;2.73;;
25409;SDS011;13339;50.840;4.346;2023-07-29T03:43:06;4.23;;;2.30;;
25409;SDS011;13339;50.840;4.346;2023-07-29T03:45:32;4.17;;;2.27;;
25409;SDS011;13339;50.840;4.346;2023-07-29T03:47:58;7.63;;;2.53;;
25409;SDS011;13339;50.840;4.346;2023-07-29T03:50:24;3.37;;;2.30;;
25409;SDS011;13339;50.840;4.346;2023-07-29T03:52:49;4.07;;;2.30;;
25409;SDS011;13339;50.840;4.346;2023-07-29T03:55:15;3.00;;;2.10;;
25409;SDS011;13339;50.840;4.346;2023-07-29T03:57:41;3.50;;;2.23;;
25409;SDS011;13339;50.840;4.346;2023-07-29T04:00:07;5.97;;;2.83;;
25409;SDS011;13339;50.840;4.346;2023-07-29T04:02:34;4.33;;;2.60;;
25409;SDS011;13339;50.840;4.346;2023-07-29T04:05:02;3.47;;;2.17;;
25409;SDS011;13339;50.840;4.346;2023-07-29T04:07:28;3.63;;;2.17;;
25409;SDS011;13339;50.840;4.346;2023-07-29T04:09:54;4.83;;;2.20;;
25409;SDS011;13339;50.840;4.346;2023-07-29T04:12:20;3.47;;;2.20;;
25409;SDS011;13339;50.840;4.346;2023-07-29T04:14:46;7.23;;;2.37;;
25409;SDS011;13339;50.840;4.346;2023-07-29T04:17:12;2.40;;;2.17;;
25409;SDS011;13339;50.840;4.346;2023-07-29T04:19:38;4.07;;;2.40;;
25409;SDS011;13339;50.840;4.346;2023-07-29T04:22:03;3.97;;;2.00;;
25409;SDS011;13339;50.840;4.346;2023-07-29T04:24:29;7.00;;;2.30;;
25409;SDS011;13339;50.840;4.346;2023-07-29T04:26:55;7.47;;;2.73;;
25409;SDS011;13339;50.840;4.346;2023-07-29T04:29:20;3.20;;;2.40;;
25409;SDS011;13339;50.840;4.346;2023-07-29T04:31:47;3.30;;;2.30;;
25409;SDS011;13339;50.840;4.346;2023-07-29T04:34:13;3.27;;;2.30;;
25409;SDS011;13339;50.840;4.346;2023-07-29T04:36:39;4.57;;;2.30;;
25409;SDS011;13339;50.840;4.346;2023-07-29T04:39:05;6.53;;;2.30;;
25409;SDS011;13339;50.840;4.346;2023-07-29T04:41:30;5.10;;;2.20;;
25409;SDS011;13339;50.840;4.346;2023-07-29T04:43:56;4.40;;;2.27;;
25409;SDS011;13339;50.840;4.346;2023-07-29T04:46:21;4.23;;;2.30;;
25409;SDS011;13339;50.840;4.346;2023-07-29T04:48:47;7.63;;;2.27;;
25409;SDS011;13339;50.840;4.346;2023-07-29T04:51:12;2.93;;;2.00;;
25409;SDS011;13339;50.840;4.346;2023-07-29T04:53:38;3.87;;;2.30;;
25409;SDS011;13339;50.840;4.346;2023-07-29T04:56:04;5.83;;;1.90;;
25409;SDS011;13339;50.840;4.346;2023-07-29T04:58:30;6.37;;;2.27;;
25409;SDS011;13339;50.840;4.346;2023-07-29T05:00:59;8.97;;;2.37;;
25409;SDS011;13339;50.840;4.346;2023-07-29T05:03:25;3.17;;;2.30;;
25409;SDS011;13339;50.840;4.346;2023-07-29T05:05:51;7.20;;;2.20;;
25409;SDS011;13339;50.840;4.346;2023-07-29T05:08:18;4.13;;;2.33;;
25409;SDS011;13339;50.840;4.346;2023-07-29T05:10:44;4.60;;;2.30;;
25409;SDS011;13339;50.840;4.346;2023-07-29T05:13:09;5.33;;;2.10;;
25409;SDS011;13339;50.840;4.346;2023-07-29T05:15:35;8.60;;;2.60;;
25409;SDS011;13339;50.840;4.346;2023-07-29T05:18:01;3.73;;;2.10;;
25409;SDS011;13339;50.840;4.346;2023-07-29T05:20:26;3.90;;;2.10;;
25409;SDS011;13339;50.840;4.346;2023-07-29T05:22:52;5.93;;;2.20;;
25409;SDS011;13339;50.840;4.346;2023-07-29T05:25:17;4.13;;;2.23;;
25409;SDS011;13339;50.840;4.346;2023-07-29T05:27:43;3.93;;;1.90;;
25409;SDS011;13339;50.840;4.346;2023-07-29T05:30:08;6.40;;;2.13;;
25409;SDS011;13339;50.840;4.346;2023-07-29T05:32:34;4.97;;;2.07;;
25409;SDS011;13339;50.840;4.346;2023-07-29T05:35:00;2.43;;;1.97;;
25409;SDS011;13339;50.840;4.346;2023-07-29T05:37:25;3.53;;;2.10;;
25409;SDS011;13339;50.840;4.346;2023-07-29T05:39:51;4.07;;;1.60;;
25409;SDS011;13339;50.840;4.346;2023-07-29T05:42:16;2.37;;;1.73;;
25409;SDS011;13339;50.840;4.346;2023-07-29T05:44:42;5.23;;;2.30;;
25409;SDS011;13339;50.840;4.346;2023-07-29T05:47:07;3.83;;;1.73;;
25409;SDS011;13339;50.840;4.346;2023-07-29T05:49:33;2.43;;;1.50;;
25409;SDS011;13339;50.840;4.346;2023-07-29T05:51:59;2.70;;;2.10;;
25409;SDS011;13339;50.840;4.346;2023-07-29T05:54:24;5.47;;;1.93;;
25409;SDS011;13339;50.840;4.346;2023-07-29T05:56:50;3.90;;;2.03;;
25409;SDS011;13339;50.840;4.346;2023-07-29T05:59:15;2.53;;;1.83;;
25409;SDS011;13339;50.840;4.346;2023-07-29T06:01:41;2.23;;;1.80;;
25409;SDS011;13339;50.840;4.346;2023-07-29T06:04:07;3.93;;;1.60;;
25409;SDS011;13339;50.840;4.346;2023-07-29T06:06:33;3.93;;;1.80;;
25409;SDS011;13339;50.840;4.346;2023-07-29T06:08:58;3.63;;;1.90;;
25409;SDS011;13339;50.840;4.346;2023-07-29T06:11:24;4.03;;;1.73;;
25409;SDS011;13339;50.840;4.346;2023-07-29T06:13:50;4.37;;;1.60;;
25409;SDS011;13339;50.840;4.346;2023-07-29T06:16:15;3.93;;;2.00;;
25409;SDS011;13339;50.840;4.346;2023-07-29T06:18:41;1.93;;;1.60;;
25409;SDS011;13339;50.840;4.346;2023-07-29T06:21:06;2.20;;;1.63;;
25409;SDS011;13339;50.840;4.346;2023-07-29T06:23:33;4.80;;;1.87;;
25409;SDS011;13339;50.840;4.346;2023-07-29T06:25:59;5.53;;;1.30;;
25409;SDS011;13339;50.840;4.346;2023-07-29T06:28:25;1.50;;;1.40;;
25409;SDS011;13339;50.840;4.346;2023-07-29T06:30:52;4.70;;;1.63;;
25409;SDS011;13339;50.840;4.346;2023-07-29T06:33:17;5.03;;;1.60;;
25409;SDS011;13339;50.840;4.346;2023-07-29T06:35:43;4.77;;;1.70;;
25409;SDS011;13339;50.840;4.346;2023-07-29T06:38:09;2.60;;;1.83;;
25409;SDS011;13339;50.840;4.346;2023-07-29T06:40:34;4.73;;;1.70;;
25409;SDS011;13339;50.840;4.346;2023-07-29T06:43:00;2.73;;;1.60;;
25409;SDS011;13339;50.840;4.346;2023-07-29T06:45:26;4.37;;;1.40;;
25409;SDS011;13339;50.840;4.346;2023-07-29T06:47:51;4.80;;;1.60;;
25409;SDS011;13339;50.840;4.346;2023-07-29T06:50:17;2.40;;;1.47;;
25409;SDS011;13339;50.840;4.346;2023-07-29T06:52:43;3.67;;;1.70;;
25409;SDS011;13339;50.840;4.346;2023-07-29T06:55:08;3.83;;;1.60;;
25409;SDS011;13339;50.840;4.346;2023-07-29T06:57:34;2.33;;;1.60;;
25409;SDS011;13339;50.840;4.346;2023-07-29T07:00:00;4.80;;;1.33;;
25409;SDS011;13339;50.840;4.346;2023-07-29T07:02:26;5.83;;;1.60;;
25409;SDS011;13339;50.840;4.346;2023-07-29T07:04:51;1.60;;;1.50;;
25409;SDS011;13339;50.840;4.346;2023-07-29T07:07:17;2.47;;;1.50;;
25409;SDS011;13339;50.840;4.346;2023-07-29T07:09:42;3.63;;;1.43;;
25409;SDS011;13339;50.840;4.346;2023-07-29T07:12:08;5.23;;;1.50;;
25409;SDS011;13339;50.840;4.346;2023-07-29T07:14:34;3.40;;;1.80;;
25409;SDS011;13339;50.840;4.346;2023-07-29T07:17:08;2.70;;;1.60;;
25409;SDS011;13339;50.840;4.346;2023-07-29T07:19:34;4.13;;;1.60;;
25409;SDS011;13339;50.840;4.346;2023-07-29T07:22:00;7.43;;;1.70;;
25409;SDS011;13339;50.840;4.346;2023-07-29T07:24:25;3.53;;;1.80;;
25409;SDS011;13339;50.840;4.346;2023-07-29T07:26:51;2.73;;;1.53;;
25409;SDS011;13339;50.840;4.346;2023-07-29T07:29:16;2.00;;;1.60;;
25409;SDS011;13339;50.840;4.346;2023-07-29T07:31:46;6.53;;;1.90;;
25409;SDS011;13339;50.840;4.346;2023-07-29T07:34:18;2.03;;;1.40;;
25409;SDS011;13339;50.840;4.346;2023-07-29T07:36:44;4.30;;;1.57;;
25409;SDS011;13339;50.840;4.346;2023-07-29T07:39:10;3.33;;;1.20;;
25409;SDS011;13339;50.840;4.346;2023-07-29T07:41:36;4.00;;;1.77;;
25409;SDS011;13339;50.840;4.346;2023-07-29T07:44:01;3.00;;;1.50;;
25409;SDS011;13339;50.840;4.346;2023-07-29T07:46:28;2.90;;;1.50;;
25409;SDS011;13339;50.840;4.346;2023-07-29T07:48:53;3.13;;;1.50;;
25409;SDS011;13339;50.840;4.346;2023-07-29T07:51:19;2.33;;;1.67;;
25409;SDS011;13339;50.840;4.346;2023-07-29T07:53:45;3.20;;;1.73;;
25409;SDS011;13339;50.840;4.346;2023-07-29T07:56:11;4.27;;;1.70;;
25409;SDS011;13339;50.840;4.346;2023-07-29T07:58:36;1.87;;;1.50;;
25409;SDS011;13339;50.840;4.346;2023-07-29T08:01:05;2.10;;;1.40;;
25409;SDS011;13339;50.840;4.346;2023-07-29T08:03:32;5.57;;;1.57;;
25409;SDS011;13339;50.840;4.346;2023-07-29T08:05:58;2.57;;;1.57;;
25409;SDS011;13339;50.840;4.346;2023-07-29T08:08:27;1.70;;;1.30;;
25409;SDS011;13339;50.840;4.346;2023-07-29T08:10:54;2.47;;;1.40;;
25409;SDS011;13339;50.840;4.346;2023-07-29T08:13:21;2.87;;;1.70;;
25409;SDS011;13339;50.840;4.346;2023-07-29T08:15:47;5.80;;;1.60;;
25409;SDS011;13339;50.840;4.346;2023-07-29T08:18:14;2.70;;;1.57;;
25409;SDS011;13339;50.840;4.346;2023-07-29T08:20:40;2.33;;;1.20;;
25409;SDS011;13339;50.840;4.346;2023-07-29T08:23:06;2.50;;;1.63;;
25409;SDS011;13339;50.840;4.346;2023-07-29T08:25:32;2.77;;;1.53;;
25409;SDS011;13339;50.840;4.346;2023-07-29T08:27:57;3.40;;;1.33;;
25409;SDS011;13339;50.840;4.346;2023-07-29T08:30:23;1.50;;;1.27;;
25409;SDS011;13339;50.840;4.346;2023-07-29T08:32:48;2.03;;;1.30;;
25409;SDS011;13339;50.840;4.346;2023-07-29T08:35:15;3.57;;;1.33;;
25409;SDS011;13339;50.840;4.346;2023-07-29T08:37:41;2.60;;;1.10;;
25409;SDS011;13339;50.840;4.346;2023-07-29T08:40:06;3.20;;;1.30;;
25409;SDS011;13339;50.840;4.346;2023-07-29T08:42:33;2.20;;;1.23;;
25409;SDS011;13339;50.840;4.346;2023-07-29T08:45:06;2.53;;;1.40;;
25409;SDS011;13339;50.840;4.346;2023-07-29T08:47:33;3.10;;;1.60;;
25409;SDS011;13339;50.840;4.346;2023-07-29T08:49:59;2.67;;;1.47;;
25409;SDS011;13339;50.840;4.346;2023-07-29T08:52:27;4.60;;;1.40;;
25409;SDS011;13339;50.840;4.346;2023-07-29T08:54:54;2.70;;;1.60;;
25409;SDS011;13339;50.840;4.346;2023-07-29T08:57:21;5.23;;;1.50;;
25409;SDS011;13339;50.840;4.346;2023-07-29T08:59:48;2.60;;;1.47;;
25409;SDS011;13339;50.840;4.346;2023-07-29T09:02:14;2.80;;;1.47;;
25409;SDS011;13339;50.840;4.346;2023-07-29T09:04:39;3.23;;;1.43;;
25409;SDS011;13339;50.840;4.346;2023-07-29T09:07:05;2.33;;;1.50;;
25409;SDS011;13339;50.840;4.346;2023-07-29T09:09:32;2.20;;;1.30;;
25409;SDS011;13339;50.840;4.346;2023-07-29T09:11:58;2.87;;;1.60;;
25409;SDS011;13339;50.840;4.346;2023-07-29T09:14:23;2.03;;;1.70;;
25409;SDS011;13339;50.840;4.346;2023-07-29T09:16:49;1.63;;;1.40;;
25409;SDS011;13339;50.840;4.346;2023-07-29T09:19:15;2.43;;;1.83;;
25409;SDS011;13339;50.840;4.346;2023-07-29T09:21:41;3.40;;;1.80;;
25409;SDS011;13339;50.840;4.346;2023-07-29T09:24:07;5.13;;;2.23;;
25409;SDS011;13339;50.840;4.346;2023-07-29T09:26:33;2.93;;;1.57;;
25409;SDS011;13339;50.840;4.346;2023-07-29T09:28:59;3.80;;;1.70;;
25409;SDS011;13339;50.840;4.346;2023-07-29T09:31:26;5.33;;;2.00;;
25409;SDS011;13339;50.840;4.346;2023-07-29T09:33:57;2.40;;;1.60;;
25409;SDS011;13339;50.840;4.346;2023-07-29T09:36:23;1.83;;;1.50;;
25409;SDS011;13339;50.840;4.346;2023-07-29T09:38:53;4.30;;;1.70;;
25409;SDS011;13339;50.840;4.346;2023-07-29T09:41:21;2.30;;;1.77;;
25409;SDS011;13339;50.840;4.346;2023-07-29T09:44:00;3.43;;;1.50;;
25409;SDS011;13339;50.840;4.346;2023-07-29T09:46:35;4.53;;;1.60;;
25409;SDS011;13339;50.840;4.346;2023-07-29T09:49:05;2.30;;;2.00;;
25409;SDS011;13339;50.840;4.346;2023-07-29T09:51:31;2.57;;;1.70;;
25409;SDS011;13339;50.840;4.346;2023-07-29T09:54:02;4.83;;;2.60;;
25409;SDS011;13339;50.840;4.346;2023-07-29T09:56:28;3.27;;;2.20;;
25409;SDS011;13339;50.840;4.346;2023-07-29T09:58:57;6.07;;;3.00;;
25409;SDS011;13339;50.840;4.346;2023-07-29T10:01:22;3.07;;;1.87;;
25409;SDS011;13339;50.840;4.346;2023-07-29T10:03:48;4.57;;;2.40;;
25409;SDS011;13339;50.840;4.346;2023-07-29T10:06:14;3.37;;;1.90;;
25409;SDS011;13339;50.840;4.346;2023-07-29T10:08:42;1.90;;;1.70;;
25409;SDS011;13339;50.840;4.346;2023-07-29T10:11:08;7.53;;;2.10;;
25409;SDS011;13339;50.840;4.346;2023-07-29T10:13:35;5.33;;;2.20;;
25409;SDS011;13339;50.840;4.346;2023-07-29T10:16:02;2.17;;;1.70;;
25409;SDS011;13339;50.840;4.346;2023-07-29T10:18:29;2.08;;;1.88;;
25409;SDS011;13339;50.840;4.346;2023-07-29T10:20:56;4.47;;;2.57;;
25409;SDS011;13339;50.840;4.346;2023-07-29T10:23:24;3.08;;;1.83;;
25409;SDS011;13339;50.840;4.346;2023-07-29T10:26:12;2.70;;;1.70;;
25409;SDS011;13339;50.840;4.346;2023-07-29T10:28:39;4.68;;;2.35;;
25409;SDS011;13339;50.840;4.346;2023-07-29T10:31:06;2.72;;;2.28;;
25409;SDS011;13339;50.840;4.346;2023-07-29T10:33:32;8.95;;;3.33;;
25409;SDS011;13339;50.840;4.346;2023-07-29T10:35:59;7.50;;;2.90;;
25409;SDS011;13339;50.840;4.346;2023-07-29T10:38:26;7.30;;;3.80;;
25409;SDS011;13339;50.840;4.346;2023-07-29T10:40:52;6.60;;;3.80;;
25409;SDS011;13339;50.840;4.346;2023-07-29T10:43:31;6.33;;;3.10;;
25409;SDS011;13339;50.840;4.346;2023-07-29T10:45:57;7.27;;;4.00;;
25409;SDS011;13339;50.840;4.346;2023-07-29T10:48:40;4.60;;;3.90;;
25409;SDS011;13339;50.840;4.346;2023-07-29T10:56:36;4.10;;;3.60;;
25409;SDS011;13339;50.840;4.346;2023-07-29T11:01:51;5.87;;;3.60;;
25409;SDS011;13339;50.840;4.346;2023-07-29T11:07:01;5.20;;;3.23;;
25409;SDS011;13339;50.840;4.346;2023-07-29T11:17:39;4.50;;;2.93;;
25409;SDS011;13339;50.840;4.346;2023-07-29T11:20:06;7.23;;;3.07;;
25409;SDS011;13339;50.840;4.346;2023-07-29T11:22:33;3.27;;;2.90;;
25409;SDS011;13339;50.840;4.346;2023-07-29T11:24:59;3.20;;;2.90;;
25409;SDS011;13339;50.840;4.346;2023-07-29T11:27:24;5.40;;;2.90;;
25409;SDS011;13339;50.840;4.346;2023-07-29T11:29:50;4.73;;;2.77;;
25409;SDS011;13339;50.840;4.346;2023-07-29T11:32:21;2.60;;;2.40;;
25409;SDS011;13339;50.840;4.346;2023-07-29T11:34:46;4.57;;;2.60;;
25409;SDS011;13339;50.840;4.346;2023-07-29T11:37:12;6.00;;;2.00;;
25409;SDS011;13339;50.840;4.346;2023-07-29T11:39:41;3.10;;;2.43;;
25409;SDS011;13339;50.840;4.346;2023-07-29T11:42:10;2.90;;;2.50;;
25409;SDS011;13339;50.840;4.346;2023-07-29T11:44:36;4.30;;;2.13;;
25409;SDS011;13339;50.840;4.346;2023-07-29T11:47:05;6.27;;;2.13;;
25409;SDS011;13339;50.840;4.346;2023-07-29T11:49:35;3.73;;;1.73;;
25409;SDS011;13339;50.840;4.346;2023-07-29T11:52:02;5.67;;;2.30;;
25409;SDS011;13339;50.840;4.346;2023-07-29T11:54:29;3.63;;;2.20;;
25409;SDS011;13339;50.840;4.346;2023-07-29T11:56:55;4.55;;;2.50;;
25409;SDS011;13339;50.840;4.346;2023-07-29T11:59:21;3.60;;;2.20;;
25409;SDS011;13339;50.840;4.346;2023-07-29T12:01:48;3.03;;;2.30;;
25409;SDS011;13339;50.840;4.346;2023-07-29T12:04:13;2.42;;;2.20;;
25409;SDS011;13339;50.840;4.346;2023-07-29T12:06:40;5.57;;;2.63;;
25409;SDS011;13339;50.840;4.346;2023-07-29T12:09:06;5.72;;;3.42;;
25409;SDS011;13339;50.840;4.346;2023-07-29T12:11:38;5.20;;;3.27;;
25409;SDS011;13339;50.840;4.346;2023-07-29T12:14:07;2.87;;;2.60;;
25409;SDS011;13339;50.840;4.346;2023-07-29T12:16:40;4.77;;;2.97;;
25409;SDS011;13339;50.840;4.346;2023-07-29T12:19:06;2.70;;;2.50;;
25409;SDS011;13339;50.840;4.346;2023-07-29T12:21:32;3.70;;;2.30;;
25409;SDS011;13339;50.840;4.346;2023-07-29T12:23:58;2.40;;;2.20;;
25409;SDS011;13339;50.840;4.346;2023-07-29T12:26:27;2.57;;;2.37;;
25409;SDS011;13339;50.840;4.346;2023-07-29T12:28:53;2.70;;;2.47;;
25409;SDS011;13339;50.840;4.346;2023-07-29T12:31:19;6.37;;;2.73;;
25409;SDS011;13339;50.840;4.346;2023-07-29T12:33:44;4.73;;;3.10;;
25409;SDS011;13339;50.840;4.346;2023-07-29T12:36:10;5.60;;;3.20;;
25409;SDS011;13339;50.840;4.346;2023-07-29T12:38:35;5.27;;;2.90;;
25409;SDS011;13339;50.840;4.346;2023-07-29T12:41:01;4.03;;;2.80;;
25409;SDS011;13339;50.840;4.346;2023-07-29T12:43:28;6.27;;;3.20;;
25409;SDS011;13339;50.840;4.346;2023-07-29T12:45:54;3.50;;;3.20;;
25409;SDS011;13339;50.840;4.346;2023-07-29T12:48:21;3.37;;;3.00;;
25409;SDS011;13339;50.840;4.346;2023-07-29T12:50:51;3.70;;;3.40;;
25409;SDS011;13339;50.840;4.346;2023-07-29T12:53:16;2.87;;;2.67;;
25409;SDS011;13339;50.840;4.346;2023-07-29T12:55:43;3.73;;;3.20;;
25409;SDS011;13339;50.840;4.346;2023-07-29T12:58:08;3.23;;;2.93;;
25409;SDS011;13339;50.840;4.346;2023-07-29T13:00:37;4.37;;;2.43;;
25409;SDS011;13339;50.840;4.346;2023-07-29T13:03:04;2.50;;;2.30;;
25409;SDS011;13339;50.840;4.346;2023-07-29T13:05:30;3.10;;;2.53;;
25409;SDS011;13339;50.840;4.346;2023-07-29T13:07:56;4.10;;;2.73;;
25409;SDS011;13339;50.840;4.346;2023-07-29T13:10:21;3.38;;;3.08;;
25409;SDS011;13339;50.840;4.346;2023-07-29T13:12:47;3.80;;;2.83;;
25409;SDS011;13339;50.840;4.346;2023-07-29T13:15:13;2.75;;;2.55;;
25409;SDS011;13339;50.840;4.346;2023-07-29T13:17:39;3.45;;;2.60;;
25409;SDS011;13339;50.840;4.346;2023-07-29T13:20:05;4.97;;;2.70;;
25409;SDS011;13339;50.840;4.346;2023-07-29T13:22:31;6.55;;;2.63;;
25409;SDS011;13339;50.840;4.346;2023-07-29T13:24:57;4.80;;;2.40;;
25409;SDS011;13339;50.840;4.346;2023-07-29T13:27:22;2.88;;;2.40;;
25409;SDS011;13339;50.840;4.346;2023-07-29T13:29:50;4.82;;;2.10;;
25409;SDS011;13339;50.840;4.346;2023-07-29T13:32:16;4.60;;;2.42;;
25409;SDS011;13339;50.840;4.346;2023-07-29T13:34:41;3.83;;;2.30;;
25409;SDS011;13339;50.840;4.346;2023-07-29T13:37:08;2.45;;;2.05;;
25409;SDS011;13339;50.840;4.346;2023-07-29T13:39:33;1.98;;;1.80;;
25409;SDS011;13339;50.840;4.346;2023-07-29T13:41:59;2.95;;;1.77;;
25409;SDS011;13339;50.840;4.346;2023-07-29T13:44:24;5.05;;;2.85;;
25409;SDS011;13339;50.840;4.346;2023-07-29T13:46:50;7.03;;;2.30;;
25409;SDS011;13339;50.840;4.346;2023-07-29T13:49:16;3.40;;;2.38;;
25409;SDS011;13339;50.840;4.346;2023-07-29T13:51:42;3.03;;;2.03;;
25409;SDS011;13339;50.840;4.346;2023-07-29T13:54:07;3.03;;;1.95;;
25409;SDS011;13339;50.840;4.346;2023-07-29T13:56:33;2.33;;;2.10;;
25409;SDS011;13339;50.840;4.346;2023-07-29T13:58:59;2.10;;;1.90;;
25409;SDS011;13339;50.840;4.346;2023-07-29T14:01:24;2.33;;;2.13;;
25409;SDS011;13339;50.840;4.346;2023-07-29T14:03:50;2.37;;;2.00;;
25409;SDS011;13339;50.840;4.346;2023-07-29T14:06:15;2.97;;;2.10;;
25409;SDS011;13339;50.840;4.346;2023-07-29T14:08:41;2.35;;;1.80;;
25409;SDS011;13339;50.840;4.346;2023-07-29T14:11:07;3.35;;;1.85;;
25409;SDS011;13339;50.840;4.346;2023-07-29T14:13:33;5.18;;;1.55;;
25409;SDS011;13339;50.840;4.346;2023-07-29T14:16:00;2.03;;;1.48;;
25409;SDS011;13339;50.840;4.346;2023-07-29T14:18:27;3.67;;;1.73;;
25409;SDS011;13339;50.840;4.346;2023-07-29T14:20:53;3.88;;;1.85;;
25409;SDS011;13339;50.840;4.346;2023-07-29T14:23:20;2.58;;;1.75;;
25409;SDS011;13339;50.840;4.346;2023-07-29T14:25:46;1.98;;;1.80;;
25409;SDS011;13339;50.840;4.346;2023-07-29T14:28:12;2.00;;;1.83;;
25409;SDS011;13339;50.840;4.346;2023-07-29T14:30:39;1.67;;;1.58;;
25409;SDS011;13339;50.840;4.346;2023-07-29T14:33:06;2.75;;;1.30;;
25409;SDS011;13339;50.840;4.346;2023-07-29T14:35:33;1.73;;;1.42;;
25409;SDS011;13339;50.840;4.346;2023-07-29T14:37:58;3.72;;;1.20;;
25409;SDS011;13339;50.840;4.346;2023-07-29T14:40:24;1.55;;;1.45;;
25409;SDS011;13339;50.840;4.346;2023-07-29T14:42:50;1.40;;;1.30;;
25409;SDS011;13339;50.840;4.346;2023-07-29T14:45:15;2.70;;;1.30;;
25409;SDS011;13339;50.840;4.346;2023-07-29T14:47:41;2.20;;;1.30;;
25409;SDS011;13339;50.840;4.346;2023-07-29T14:50:06;4.07;;;1.80;;
25409;SDS011;13339;50.840;4.346;2023-07-29T14:52:32;1.95;;;1.75;;
25409;SDS011;13339;50.840;4.346;2023-07-29T14:54:58;2.00;;;1.83;;
25409;SDS011;13339;50.840;4.346;2023-07-29T14:57:23;2.08;;;1.85;;
25409;SDS011;13339;50.840;4.346;2023-07-29T14:59:49;1.65;;;1.50;;
25409;SDS011;13339;50.840;4.346;2023-07-29T15:02:17;1.88;;;1.60;;
25409;SDS011;13339;50.840;4.346;2023-07-29T15:04:43;2.22;;;1.67;;
25409;SDS011;13339;50.840;4.346;2023-07-29T15:07:08;3.60;;;1.80;;
25409;SDS011;13339;50.840;4.346;2023-07-29T15:09:34;1.65;;;1.55;;